Time;durP1;ratioP1;P1;durP2;ratioP2;P2;SDS_P1;SDS_P2;PMS_P1;PMS_P2;Temp;Humidity;BMP_temperature;BMP_pressure;BME280_temperature;BME280_humidity;BME280_pressure;Samples;Min_cycle;Max_cycle;Signal;HPM_P1;HPM_P2
2023/01/08 00:01:06;;;;;;;;;4.50;4.25;;;;;12.68;68.35;99815.16;6176459;23;45670;-74
2023/01/08 00:03:32;;;;;;;;;6.25;3.00;;;;;12.67;68.48;99820.56;6176656;23;45611;-77
2023/01/08 00:06:02;;;;;;;;;4.00;4.00;;;;;12.66;68.09;99813.63;6177158;23;45736;-76
2023/01/08 00:08:34;;;;;;;;;4.00;3.75;;;;;12.60;68.30;99807.97;6176645;23;47183;-75
2023/01/08 00:11:00;;;;;;;;;4.00;4.00;;;;;12.68;68.27;99804.66;6176040;23;47055;-76
2023/01/08 00:13:26;;;;;;;;;4.00;3.25;;;;;12.67;68.26;99802.16;6177097;23;45763;-76
2023/01/08 00:15:52;;;;;;;;;5.00;4.50;;;;;12.68;68.35;99801.19;6176186;23;45475;-76
2023/01/08 00:18:17;;;;;;;;;3.50;3.50;;;;;12.63;68.43;99791.91;6176300;23;47081;-78
2023/01/08 00:20:43;;;;;;;;;3.00;3.00;;;;;12.69;68.39;99794.94;6150975;23;46039;-77
2023/01/08 00:23:17;;;;;;;;;4.75;4.00;;;;;12.68;68.72;99798.56;6176479;23;45606;-75
2023/01/08 00:25:43;;;;;;;;;7.00;5.50;;;;;12.66;68.34;99792.63;6176662;23;45578;-74
2023/01/08 00:28:09;;;;;;;;;4.25;4.00;;;;;12.65;68.44;99796.22;6176885;23;47394;-76
2023/01/08 00:30:35;;;;;;;;;4.50;3.75;;;;;12.52;68.67;99772.88;6295039;22;46319;-74
2023/01/08 00:33:00;;;;;;;;;4.00;4.00;;;;;12.65;68.63;99801.47;6275897;22;45509;-77
2023/01/08 00:35:26;;;;;;;;;6.25;5.00;;;;;12.60;68.39;99797.47;6278972;22;45494;-76
2023/01/08 00:37:51;;;;;;;;;3.75;3.75;;;;;12.58;68.21;99803.81;6305093;22;46409;-77
2023/01/08 00:40:16;;;;;;;;;4.50;4.50;;;;;12.62;68.54;99810.47;6277006;22;47065;-74
2023/01/08 00:42:42;;;;;;;;;5.25;4.00;;;;;12.59;68.54;99793.19;6276491;22;45856;-75
2023/01/08 00:45:07;;;;;;;;;2.75;2.25;;;;;12.58;68.71;99793.31;6303311;22;45484;-77
2023/01/08 00:47:33;;;;;;;;;4.75;3.00;;;;;12.48;68.26;99785.47;6305483;22;46408;-77
2023/01/08 00:49:58;;;;;;;;;4.00;4.00;;;;;12.50;68.44;99786.16;6306311;22;46056;-76
2023/01/08 00:52:24;;;;;;;;;4.00;3.00;;;;;12.53;68.51;99779.78;6301821;22;45627;-78
2023/01/08 00:54:49;;;;;;;;;5.50;5.00;;;;;12.54;68.56;99774.38;6301727;22;45539;-76
2023/01/08 00:57:14;;;;;;;;;2.25;2.00;;;;;12.53;68.38;99775.34;6302615;22;45548;-75
2023/01/08 00:59:40;;;;;;;;;3.50;3.25;;;;;12.51;68.57;99763.34;6302097;22;46106;-74
2023/01/08 01:06:09;;;;;;;;;4.25;3.00;;;;;12.50;68.49;99770.41;6299779;22;45792;-76
2023/01/08 01:08:34;;;;;;;;;4.00;3.00;;;;;12.49;68.02;99767.91;6301932;22;47679;-76
2023/01/08 01:10:59;;;;;;;;;3.00;3.00;;;;;12.46;68.37;99761.16;6302068;22;45966;-76
2023/01/08 01:13:25;;;;;;;;;4.50;4.00;;;;;12.41;68.11;99752.03;6302384;22;45773;-77
2023/01/08 01:15:58;;;;;;;;;6.00;3.75;;;;;12.46;68.04;99755.06;6303286;22;45530;-77
2023/01/08 01:18:24;;;;;;;;;5.50;4.00;;;;;12.43;67.82;99750.91;6304194;22;47783;-76
2023/01/08 01:20:50;;;;;;;;;3.75;3.25;;;;;12.39;68.13;99753.97;6302838;22;45986;-78
2023/01/08 01:23:15;;;;;;;;;3.00;3.00;;;;;12.42;68.01;99757.13;6301413;22;45560;-76
2023/01/08 01:25:41;;;;;;;;;5.75;4.00;;;;;12.41;68.11;99755.50;6302103;22;45860;-77
2023/01/08 01:28:06;;;;;;;;;3.00;2.00;;;;;12.39;67.74;99751.34;6301874;22;46652;-78
2023/01/08 01:30:31;;;;;;;;;2.75;2.75;;;;;12.37;67.75;99753.25;6273910;22;46334;-77
2023/01/08 01:32:56;;;;;;;;;3.25;2.25;;;;;12.31;68.01;99744.16;6301919;22;45537;-78
2023/01/08 01:35:22;;;;;;;;;2.25;1.50;;;;;12.26;67.90;99730.63;6302105;22;45570;-77
2023/01/08 01:37:47;;;;;;;;;4.75;2.00;;;;;12.30;67.63;99747.78;6301560;22;47027;-75
2023/01/08 01:40:13;;;;;;;;;2.00;2.00;;;;;12.23;68.00;99746.66;6301807;22;46036;-76
2023/01/08 01:42:42;;;;;;;;;3.25;2.50;;;;;12.25;68.12;99749.16;6274873;22;45739;-75
2023/01/08 01:45:16;;;;;;;;;2.75;2.50;;;;;12.24;68.11;99750.94;6302802;22;45478;-77
2023/01/08 01:51:03;;;;;;;;;3.75;2.75;;;;;12.22;67.76;99757.31;6302001;22;45774;-75
2023/01/08 01:53:35;;;;;;;;;2.50;2.00;;;;;12.16;68.00;99756.91;6301880;22;46147;-77
2023/01/08 01:56:03;;;;;;;;;2.75;2.00;;;;;12.20;67.73;99760.06;6303034;22;45510;-74
2023/01/08 01:58:30;;;;;;;;;3.25;2.00;;;;;12.18;67.70;99772.53;6302361;22;46734;-76
2023/01/08 02:01:02;;;;;;;;;2.00;1.00;;;;;12.13;67.79;99767.69;6303411;22;46875;-76
2023/01/08 02:03:34;;;;;;;;;2.25;2.25;;;;;12.12;67.66;99771.28;6277322;22;45440;-77
2023/01/08 02:06:14;;;;;;;;;3.25;1.75;;;;;12.06;67.98;99748.19;6303321;22;45580;-77
2023/01/08 02:09:02;;;;;;;;;1.25;1.00;;;;;12.13;67.72;99764.22;6274383;22;47426;-77
2023/01/08 02:11:37;;;;;;;;;2.00;2.00;;;;;12.15;67.96;99762.28;6302119;22;46026;-76
2023/01/08 02:14:15;;;;;;;;;2.00;2.00;;;;;12.16;67.49;99767.41;6302620;22;45597;-78
2023/01/08 02:16:54;;;;;;;;;2.50;2.50;;;;;12.14;67.81;99768.53;6301802;22;45804;-75
2023/01/08 02:19:40;;;;;;;;;2.00;2.00;;;;;12.17;67.35;99770.84;6301440;22;47658;-78
2023/01/08 02:22:30;;;;;;;;;0.75;0.75;;;;;12.18;67.59;99775.97;6302357;22;46166;-77
2023/01/08 02:25:05;;;;;;;;;1.00;1.00;;;;;12.08;67.47;99763.81;6301860;22;45613;-76
2023/01/08 02:27:33;;;;;;;;;2.50;1.75;;;;;12.15;67.70;99775.41;6274245;22;45522;-76
2023/01/08 02:30:00;;;;;;;;;2.00;2.00;;;;;12.14;67.83;99777.22;6302803;22;45759;-76
2023/01/08 02:32:35;;;;;;;;;1.00;1.00;;;;;12.10;67.63;99767.94;6304875;22;46463;-78
2023/01/08 02:35:01;;;;;;;;;3.50;2.00;;;;;12.15;67.57;99778.88;6306620;22;45549;-77
2023/01/08 02:37:27;;;;;;;;;1.00;1.00;;;;;12.09;67.68;99770.75;6306976;22;45509;-76
2023/01/08 02:39:58;;;;;;;;;3.00;1.75;;;;;12.14;67.61;99768.53;6306597;22;46345;-77
2023/01/08 02:42:36;;;;;;;;;2.00;1.00;;;;;12.12;67.73;99771.28;6306384;22;46047;-77
2023/01/08 02:45:23;;;;;;;;;1.75;1.00;;;;;12.09;67.89;99774.16;6280113;22;45682;-76
2023/01/08 02:48:15;;;;;;;;;2.25;1.75;;;;;12.08;67.82;99769.06;6308126;22;45614;-75
2023/01/08 02:50:50;;;;;;;;;2.50;2.00;;;;;12.08;67.82;99769.06;6241858;22;46319;-77
2023/01/08 02:53:27;;;;;;;;;2.00;1.00;;;;;12.07;67.93;99765.63;6241276;22;45964;-77
2023/01/08 02:55:57;;;;;;;;;2.00;1.75;;;;;12.06;68.13;99768.38;6239955;22;45739;-74
2023/01/08 02:58:26;;;;;;;;;1.00;0.25;;;;;12.08;68.05;99771.69;6240130;22;45576;-74
2023/01/08 03:00:53;;;;;;;;;3.00;2.00;;;;;12.08;68.22;99771.69;6239773;22;47404;-76
2023/01/08 03:03:22;;;;;;;;;2.00;1.00;;;;;12.08;68.09;99763.81;6239774;22;46159;-76
2023/01/08 03:05:52;;;;;;;;;1.00;0.00;;;;;12.10;68.13;99767.13;6239538;22;45707;-76
2023/01/08 03:08:20;;;;;;;;;0.50;0.50;;;;;12.12;68.11;99752.06;6240622;22;45604;-78
2023/01/08 03:10:52;;;;;;;;;1.00;1.00;;;;;12.12;68.24;99749.44;6240016;22;45999;-78
2023/01/08 03:13:30;;;;;;;;;2.50;1.50;;;;;12.15;68.04;99743.91;6239900;22;47291;-77
2023/01/08 03:15:59;;;;;;;;;1.75;1.25;;;;;12.17;67.88;99744.59;6240564;22;45577;-76
2023/01/08 03:18:33;;;;;;;;;1.00;1.00;;;;;12.18;67.72;99744.47;6240664;22;45438;-76
2023/01/08 03:21:00;;;;;;;;;2.00;1.00;;;;;12.19;68.01;99740.88;6239700;22;46734;-77
2023/01/08 03:23:30;;;;;;;;;1.00;1.00;;;;;12.18;67.99;99739.22;6239999;22;46012;-76
2023/01/08 03:25:59;;;;;;;;;2.00;1.00;;;;;12.15;67.81;99730.78;6240875;22;45685;-76
2023/01/08 03:28:29;;;;;;;;;1.50;1.00;;;;;12.17;67.95;99747.22;6267160;22;45462;-76
2023/01/08 03:30:56;;;;;;;;;1.25;1.00;;;;;12.17;67.96;99739.34;6274571;22;46248;-75
2023/01/08 03:33:24;;;;;;;;;0.25;0.00;;;;;12.17;67.77;99741.97;6275537;22;46264;-75
2023/01/08 03:35:52;;;;;;;;;1.25;1.25;;;;;12.14;67.75;99737.00;6273415;22;45713;-76
2023/01/08 03:38:24;;;;;;;;;2.00;1.00;;;;;12.16;68.07;99741.13;6272072;22;45859;-75
2023/01/08 03:40:56;;;;;;;;;1.50;1.00;;;;;12.15;68.13;99734.22;6273515;22;46318;-75
2023/01/08 03:43:22;;;;;;;;;1.25;0.75;;;;;12.08;67.98;99711.31;6273114;22;46827;-77
2023/01/08 03:45:54;;;;;;;;;1.25;0.00;;;;;12.07;67.97;99714.91;6272820;22;45477;-73
2023/01/08 03:48:22;;;;;;;;;2.25;1.00;;;;;12.08;67.90;99727.91;6271482;22;45557;-76
2023/01/08 03:50:48;;;;;;;;;1.00;1.00;;;;;12.07;67.79;99722.78;6271302;22;46247;-78
2023/01/08 03:53:14;;;;;;;;;3.00;2.00;;;;;12.06;67.86;99721.94;6272342;22;45474;-76
2023/01/08 03:55:39;;;;;;;;;1.25;1.00;;;;;12.06;68.17;99721.94;6272336;22;45477;-77
2023/01/08 03:58:04;;;;;;;;;1.00;1.00;;;;;12.05;68.16;99719.47;6271943;22;45369;-74
2023/01/08 04:00:30;;;;;;;;;1.00;0.50;;;;;12.07;68.05;99715.72;6271037;22;47170;-75
2023/01/08 04:02:56;;;;;;;;;2.75;1.00;;;;;12.06;67.81;99705.38;6271293;22;46149;-76
2023/01/08 04:05:21;;;;;;;;;1.00;1.00;;;;;12.07;67.89;99707.03;6282523;22;45652;-78
2023/01/08 04:07:46;;;;;;;;;0.00;0.00;;;;;12.11;67.82;99709.22;6302468;22;45477;-74
2023/01/08 04:10:12;;;;;;;;;0.50;0.50;;;;;12.02;67.84;99683.81;6303425;22;45593;-76
2023/01/08 04:12:37;;;;;;;;;1.00;1.00;;;;;12.12;67.78;99707.44;6303681;22;46000;-78
2023/01/08 04:15:03;;;;;;;;;1.00;0.75;;;;;12.11;67.90;99705.78;6305471;22;45521;-75
2023/01/08 04:17:28;;;;;;;;;1.00;1.00;;;;;12.10;67.77;99696.22;6308529;22;45508;-76
2023/01/08 04:19:54;;;;;;;;;0.25;0.00;;;;;12.09;67.86;99686.72;6307096;22;47239;-74
2023/01/08 04:22:19;;;;;;;;;2.00;1.00;;;;;12.05;67.64;99667.78;6306633;22;45938;-75
2023/01/08 04:24:44;;;;;;;;;0.00;0.00;;;;;12.10;67.84;99673.44;6305435;22;45501;-77
2023/01/08 04:27:10;;;;;;;;;2.00;1.00;;;;;12.07;67.77;99672.91;6301988;22;45659;-75
2023/01/08 04:29:35;;;;;;;;;0.00;0.00;;;;;12.09;67.42;99676.22;6302656;22;46321;-76
2023/01/08 04:32:00;;;;;;;;;1.00;1.00;;;;;12.05;67.65;99657.28;6274240;22;47151;-78
2023/01/08 04:34:26;;;;;;;;;0.50;0.50;;;;;12.10;67.80;99672.59;6302288;22;45490;-77
2023/01/08 04:36:51;;;;;;;;;0.25;0.25;;;;;12.02;67.55;99656.75;6302909;22;45408;-77
2023/01/08 04:39:16;;;;;;;;;0.75;0.00;;;;;12.09;67.80;99663.09;6302741;22;45671;-76
2023/01/08 04:41:42;;;;;;;;;1.00;1.00;;;;;12.01;67.99;99649.84;6274617;22;46911;-77
2023/01/08 04:44:08;;;;;;;;;0.25;0.25;;;;;12.04;67.81;99652.16;6302065;22;45453;-77
2023/01/08 04:46:33;;;;;;;;;2.00;1.00;;;;;12.05;67.66;99649.41;6274775;22;45477;-76
2023/01/08 04:48:59;;;;;;;;;1.00;1.00;;;;;12.03;68.01;99642.66;6302382;22;45494;-77
2023/01/08 04:51:25;;;;;;;;;1.00;0.75;;;;;12.04;67.77;99639.03;6301929;22;46322;-76
2023/01/08 04:53:50;;;;;;;;;0.25;0.00;;;;;12.00;67.78;99641.13;6302187;22;45530;-78
2023/01/08 04:56:16;;;;;;;;;1.00;0.00;;;;;12.03;67.77;99637.41;6302828;22;45836;-75
2023/01/08 04:58:41;;;;;;;;;1.75;1.00;;;;;12.03;68.01;99634.78;6302561;22;45598;-77
2023/01/08 05:01:23;;;;;;;;;0.25;0.25;;;;;11.99;67.70;99626.34;6303415;22;45919;-76
2023/01/08 05:03:58;;;;;;;;;2.00;1.00;;;;;12.02;67.92;99636.56;6303275;22;45584;-76
2023/01/08 05:06:23;;;;;;;;;1.00;0.75;;;;;12.03;68.13;99635.59;6301836;22;45441;-75
2023/01/08 05:08:49;;;;;;;;;0.50;0.25;;;;;12.01;68.03;99626.22;6301884;22;47199;-74
2023/01/08 05:11:14;;;;;;;;;1.00;1.00;;;;;11.91;68.28;99615.75;6302391;22;46555;-75
2023/01/08 05:13:40;;;;;;;;;0.75;0.00;;;;;11.97;67.83;99630.91;6302140;22;45656;-76
2023/01/08 05:16:05;;;;;;;;;1.00;1.00;;;;;11.94;67.98;99623.31;6302296;22;45821;-76
2023/01/08 05:18:31;;;;;;;;;1.25;1.25;;;;;11.93;67.90;99623.47;6274178;22;47468;-75
2023/01/08 05:24:18;;;;;;;;;2.25;1.00;;;;;11.92;68.09;99630.53;6302263;22;45585;-76
2023/01/08 05:26:43;;;;;;;;;1.00;0.00;;;;;11.96;68.38;99618.75;6302045;22;45430;-75
2023/01/08 05:29:09;;;;;;;;;1.00;0.00;;;;;11.97;68.17;99615.19;6302063;22;47142;-76
2023/01/08 05:31:34;;;;;;;;;1.00;0.00;;;;;11.99;68.07;99622.88;6302523;22;46353;-75
2023/01/08 05:34:00;;;;;;;;;0.50;0.50;;;;;11.96;68.37;99615.31;6302482;22;45906;-75
2023/01/08 05:36:25;;;;;;;;;0.75;0.00;;;;;11.95;68.22;99640.72;6302958;22;45679;-75
2023/01/08 05:38:50;;;;;;;;;1.00;0.50;;;;;11.95;68.62;99653.84;6301439;22;46333;-77
2023/01/08 05:41:16;;;;;;;;;0.00;0.00;;;;;11.91;69.69;99694.47;6302457;22;46225;-75
2023/01/08 05:43:41;;;;;;;;;1.00;1.00;;;;;11.66;71.55;99668.78;6301611;22;45595;-74
2023/01/08 05:46:07;;;;;;;;;0.00;0.00;;;;;11.48;71.23;99684.38;6303159;22;45537;-74
2023/01/08 05:48:34;;;;;;;;;1.00;0.00;;;;;11.22;70.95;99686.72;6302829;22;45529;-77
2023/01/08 05:54:21;;;;;;;;;0.00;0.00;;;;;10.78;71.14;99664.41;6302703;22;45739;-74
2023/01/08 05:56:46;;;;;;;;;0.00;0.00;;;;;10.64;71.01;99656.06;6303134;22;45651;-77
2023/01/08 05:59:12;;;;;;;;;0.00;0.00;;;;;10.48;71.28;99662.63;6303685;22;47480;-78
2023/01/08 06:01:38;;;;;;;;;0.00;0.00;;;;;10.38;70.58;99645.22;6306166;22;46528;-74
2023/01/08 06:04:03;;;;;;;;;0.00;0.00;;;;;10.36;70.62;99655.84;6307748;22;45530;-76
2023/01/08 06:10:30;;;;;;;;;0.00;0.00;;;;;10.26;70.46;99643.63;6298759;22;45539;-76
2023/01/08 06:12:55;;;;;;;;;0.00;0.00;;;;;10.12;70.22;99621.22;6302707;22;45426;-76
2023/01/08 06:15:21;;;;;;;;;0.00;0.00;;;;;10.20;70.48;99638.94;6301733;22;45577;-76
2023/01/08 06:17:46;;;;;;;;;0.00;0.00;;;;;10.22;70.46;99642.25;6302362;22;45439;-75
2023/01/08 06:20:11;;;;;;;;;0.00;0.00;;;;;10.22;70.43;99642.25;6301581;22;46297;-76
2023/01/08 06:22:36;;;;;;;;;0.00;0.00;;;;;10.22;70.65;99650.09;6302407;22;45604;-74
2023/01/08 06:25:02;;;;;;;;;0.00;0.00;;;;;10.06;70.44;99624.38;6301818;22;45601;-76
2023/01/08 06:27:28;;;;;;;;;0.00;0.00;;;;;10.22;70.71;99650.09;6301876;22;45826;-75
2023/01/08 06:29:53;;;;;;;;;0.00;0.00;;;;;10.21;70.47;99651.88;6303009;22;47485;-76
2023/01/08 06:32:19;;;;;;;;;0.00;0.00;;;;;10.20;70.25;99657.28;6303288;22;46751;-77
2023/01/08 06:34:44;;;;;;;;;0.00;0.00;;;;;10.18;70.42;99656.56;6274610;22;45850;-76
2023/01/08 06:37:09;;;;;;;;;0.00;0.00;;;;;10.16;70.89;99648.81;6302295;22;45652;-77
2023/01/08 06:39:35;;;;;;;;;0.00;0.00;;;;;10.11;70.69;99651.81;6301456;22;45703;-77
2023/01/08 06:42:00;;;;;;;;;0.00;0.00;;;;;10.15;70.64;99662.03;6301223;22;46045;-77
2023/01/08 06:44:25;;;;;;;;;0.00;0.00;;;;;10.15;71.03;99664.66;6302327;22;45480;-76
2023/01/08 06:46:51;;;;;;;;;0.00;0.00;;;;;10.07;71.05;99652.19;6273934;22;45710;-76
2023/01/08 06:49:16;;;;;;;;;0.00;0.00;;;;;10.06;71.18;99648.75;6302102;22;45608;-75
2023/01/08 06:55:04;;;;;;;;;0.00;0.00;;;;;10.07;71.54;99670.53;6301787;22;45562;-77
2023/01/08 06:57:30;;;;;;;;;0.00;0.00;;;;;10.00;71.52;99651.03;6302408;22;45616;-75
2023/01/08 06:59:56;;;;;;;;;0.00;0.00;;;;;10.03;71.83;99654.25;6300997;22;47352;-77
2023/01/08 07:02:21;;;;;;;;;0.00;0.00;;;;;10.03;71.89;99650.81;6299770;22;45586;-77
2023/01/08 07:04:46;;;;;;;;;0.00;0.00;;;;;9.98;72.05;99653.81;6273274;22;45729;-77
2023/01/08 07:10:33;;;;;;;;;0.00;0.00;;;;;10.04;72.08;99655.88;6297393;22;45673;-75
2023/01/08 07:12:59;;;;;;;;;0.00;0.00;;;;;10.06;72.41;99653.16;6300993;22;45905;-76
2023/01/08 07:15:24;;;;;;;;;0.00;0.00;;;;;10.08;72.66;99656.47;6301300;22;45746;-76
2023/01/08 07:17:49;;;;;;;;;0.75;0.00;;;;;10.08;72.52;99649.47;6301651;22;45625;-77
2023/01/08 07:20:15;;;;;;;;;0.00;0.00;;;;;10.04;72.70;99644.63;6301747;22;45526;-77
2023/01/08 07:26:04;;;;;;;;;0.25;0.00;;;;;10.15;72.89;99647.13;6302434;22;45530;-75
2023/01/08 07:28:30;;;;;;;;;0.00;0.00;;;;;10.18;72.61;99648.72;6302644;22;45620;-76
2023/01/08 07:30:56;;;;;;;;;0.00;0.00;;;;;10.19;72.82;99650.38;6303155;22;46265;-73
2023/01/08 07:33:21;;;;;;;;;0.00;0.00;;;;;10.16;72.66;99640.97;6302576;22;46221;-74
2023/01/08 07:35:53;;;;;;;;;0.00;0.00;;;;;10.22;72.75;99650.94;6303908;22;45439;-76
2023/01/08 07:38:19;;;;;;;;;1.00;0.00;;;;;10.21;72.77;99646.66;6303953;22;45652;-72
2023/01/08 07:40:44;;;;;;;;;1.00;0.00;;;;;10.25;72.90;99649.84;6302685;22;45477;-73
2023/01/08 07:43:11;;;;;;;;;1.00;0.00;;;;;10.22;72.89;99642.25;6303058;22;45617;-73
2023/01/08 07:45:37;;;;;;;;;0.00;0.00;;;;;10.30;72.67;99645.06;6301033;22;45613;-72
2023/01/08 07:48:03;;;;;;;;;1.00;0.00;;;;;10.31;72.90;99633.63;6303137;22;45582;-72
2023/01/08 07:50:28;;;;;;;;;0.25;0.00;;;;;10.32;72.88;99627.41;6302231;22;46428;-74
2023/01/08 07:56:16;;;;;;;;;0.00;0.00;;;;;10.39;73.14;99632.00;6302811;22;45543;-73
2023/01/08 07:58:41;;;;;;;;;0.25;0.00;;;;;10.38;72.73;99624.25;6302786;22;45416;-72
2023/01/08 08:01:09;;;;;;;;;0.00;0.00;;;;;10.43;72.66;99632.56;6302601;22;45470;-74
2023/01/08 08:03:35;;;;;;;;;1.25;1.00;;;;;10.44;72.64;99624.56;6274661;22;46107;-72
2023/01/08 08:06:00;;;;;;;;;0.50;0.25;;;;;10.45;72.60;99628.84;6302733;22;45432;-73
2023/01/08 08:11:48;;;;;;;;;0.75;0.00;;;;;10.51;72.44;99636.19;6296717;22;45573;-74
2023/01/08 08:14:13;;;;;;;;;1.00;0.00;;;;;10.51;72.45;99630.94;6273845;22;47508;-74
2023/01/08 08:16:39;;;;;;;;;2.00;1.00;;;;;10.58;72.56;99627.81;6302179;22;45346;-74
2023/01/08 08:19:04;;;;;;;;;1.25;1.00;;;;;10.59;72.74;99630.25;6274815;22;45860;-74
2023/01/08 08:21:30;;;;;;;;;1.00;1.00;;;;;10.62;72.72;99626.56;6301913;22;47244;-74
2023/01/08 08:23:55;;;;;;;;;1.00;0.00;;;;;10.62;72.43;99622.16;6303059;22;45432;-74
2023/01/08 08:26:21;;;;;;;;;1.00;1.00;;;;;10.63;72.27;99612.50;6302483;22;45593;-74
2023/01/08 08:28:47;;;;;;;;;2.00;1.00;;;;;10.67;72.48;99614.72;6302231;22;45526;-73
2023/01/08 08:31:12;;;;;;;;;1.00;0.00;;;;;10.69;72.46;99611.97;6302471;22;45679;-74
2023/01/08 08:33:37;;;;;;;;;0.00;0.00;;;;;10.71;72.68;99612.66;6302340;22;45506;-73
2023/01/08 08:36:03;;;;;;;;;0.25;0.25;;;;;10.71;72.61;99610.03;6302795;22;45589;-73
2023/01/08 08:38:28;;;;;;;;;1.00;0.75;;;;;10.70;72.55;99606.59;6302353;22;45478;-73
2023/01/08 08:40:54;;;;;;;;;0.75;0.00;;;;;10.71;72.65;99600.38;6302266;22;45570;-72
2023/01/08 08:43:19;;;;;;;;;1.25;1.00;;;;;10.71;72.76;99602.19;6302387;22;45558;-73
2023/01/08 08:45:45;;;;;;;;;0.00;0.00;;;;;10.76;72.33;99605.22;6301818;22;45690;-74
2023/01/08 08:48:10;;;;;;;;;1.75;1.00;;;;;10.77;72.39;99597.25;6302910;22;45572;-72
2023/01/08 08:50:37;;;;;;;;;1.50;1.00;;;;;10.78;72.72;99596.28;6275117;22;45533;-73
2023/01/08 08:53:04;;;;;;;;;1.75;1.00;;;;;10.78;72.61;99587.59;6301765;22;46125;-72
2023/01/08 08:55:30;;;;;;;;;0.00;0.00;;;;;10.76;72.29;99585.09;6302913;22;45458;-72
2023/01/08 08:58:03;;;;;;;;;0.00;0.00;;;;;10.82;72.69;99587.19;6301436;22;45553;-73
2023/01/08 09:00:28;;;;;;;;;1.00;0.75;;;;;10.71;72.62;99568.97;6302363;22;46195;-71
2023/01/08 09:02:54;;;;;;;;;0.75;0.00;;;;;10.78;72.61;99588.41;6301696;22;46894;-71
2023/01/08 09:05:19;;;;;;;;;1.25;1.00;;;;;10.85;72.38;99592.13;6302862;22;45554;-73
2023/01/08 09:07:44;;;;;;;;;0.00;0.00;;;;;10.86;72.45;99592.97;6302655;22;45788;-73
2023/01/08 09:10:10;;;;;;;;;0.00;0.00;;;;;10.87;72.47;99584.97;6303074;22;46655;-72
2023/01/08 09:12:35;;;;;;;;;1.00;0.00;;;;;10.90;72.34;99594.38;6302060;22;45513;-73
2023/01/08 09:15:00;;;;;;;;;1.00;1.00;;;;;10.92;72.33;99600.28;6302541;22;45448;-73
2023/01/08 09:17:26;;;;;;;;;1.00;1.00;;;;;10.93;72.26;99600.16;6301587;22;45828;-72
2023/01/08 09:19:51;;;;;;;;;0.50;0.50;;;;;10.97;72.19;99598.09;6301704;22;46819;-72
2023/01/08 09:22:16;;;;;;;;;0.75;0.50;;;;;11.00;71.98;99597.00;6301772;22;45936;-73
2023/01/08 09:28:06;;;;;;;;;1.00;0.50;;;;;10.98;71.91;99588.44;6302325;22;45467;-78
2023/01/08 09:30:32;;;;;;;;;0.50;0.00;;;;;11.07;71.78;99590.22;6273966;22;47227;-81
2023/01/08 09:32:59;;;;;;;;;2.00;1.00;;;;;11.09;71.52;99593.53;6301911;22;46506;-77
2023/01/08 09:35:25;;;;;;;;;0.00;0.00;;;;;11.05;71.57;99576.44;6301793;22;45663;-76
2023/01/08 09:37:55;;;;;;;;;0.25;0.00;;;;;11.13;71.25;99584.44;6302562;22;45799;-75
2023/01/08 09:40:35;;;;;;;;;0.00;0.00;;;;;11.16;71.39;99592.03;6302113;22;46411;-74
2023/01/08 09:43:04;;;;;;;;;0.25;0.25;;;;;11.20;71.25;99596.88;6302061;22;47060;-75
2023/01/08 09:45:33;;;;;;;;;1.75;0.75;;;;;11.20;71.10;99593.41;6302371;22;45393;-76
2023/01/08 09:48:04;;;;;;;;;0.50;0.50;;;;;11.23;70.57;99596.56;6302472;22;45841;-73
2023/01/08 09:50:32;;;;;;;;;1.00;0.00;;;;;11.27;70.46;99597.16;6301563;22;46508;-77
2023/01/08 09:52:59;;;;;;;;;2.50;0.00;;;;;11.26;70.51;99596.31;6275186;22;47061;-76
2023/01/08 09:55:28;;;;;;;;;0.00;0.00;;;;;11.24;70.44;99584.28;6303992;22;45538;-81
2023/01/08 09:57:54;;;;;;;;;1.00;0.00;;;;;11.26;70.35;99592.88;6276720;22;45516;-78
2023/01/08 10:00:25;;;;;;;;;0.00;0.00;;;;;11.32;70.02;99602.81;6302610;22;46251;-79
2023/01/08 10:02:52;;;;;;;;;0.00;0.00;;;;;11.33;70.31;99597.44;6301661;22;46373;-81
2023/01/08 10:05:18;;;;;;;;;0.25;0.00;;;;;11.28;70.06;99593.56;6302326;22;45768;-74
2023/01/08 10:07:45;;;;;;;;;1.25;0.00;;;;;11.33;70.08;99605.28;6302851;22;45556;-74
2023/01/08 10:13:40;;;;;;;;;0.00;0.00;;;;;11.34;70.12;99596.44;6296921;22;45905;-78
2023/01/08 10:16:09;;;;;;;;;0.00;0.00;;;;;11.36;70.23;99588.44;6303280;22;45509;-77
2023/01/08 10:18:36;;;;;;;;;0.00;0.00;;;;;11.42;69.84;99587.06;6301578;22;45419;-77
2023/01/08 10:21:02;;;;;;;;;1.00;0.00;;;;;11.38;69.89;99581.28;6301622;22;47668;-80
2023/01/08 10:23:28;;;;;;;;;1.00;0.00;;;;;11.45;69.68;99590.22;6302977;22;45505;-81
2023/01/08 10:26:01;;;;;;;;;1.00;0.00;;;;;11.47;69.62;99582.22;6302865;22;45726;-83
2023/01/08 10:28:30;;;;;;;;;0.50;0.00;;;;;11.46;69.39;99586.63;6250569;22;45547;-82
2023/01/08 10:31:13;;;;;;;;;0.00;0.00;;;;;11.48;69.60;99583.88;6303058;22;46557;-83
2023/01/08 10:33:43;;;;;;;;;0.00;0.00;;;;;11.53;69.88;99574.63;6304102;22;45563;-84
2023/01/08 10:36:13;;;;;;;;;0.00;0.00;;;;;11.60;69.57;99552.13;6308426;22;45451;-75
2023/01/08 10:38:47;;;;;;;;;1.25;0.00;;;;;11.64;69.36;99557.91;6310452;22;45724;-81
2023/01/08 10:41:14;;;;;;;;;0.50;0.00;;;;;11.62;68.97;99555.41;6305639;22;45634;-81
2023/01/08 10:43:45;;;;;;;;;0.00;0.00;;;;;11.71;69.34;99559.00;6304273;22;46920;-83
2023/01/08 10:46:22;;;;;;;;;0.50;0.00;;;;;11.74;69.22;99554.31;6303845;22;45789;-79
2023/01/08 10:48:54;;;;;;;;;1.00;0.00;;;;;11.77;68.76;99554.00;6306055;22;45608;-84
2023/01/08 10:51:24;;;;;;;;;0.25;0.25;;;;;11.78;68.63;99550.44;6301861;22;45584;-78
2023/01/08 10:53:51;;;;;;;;;1.50;0.50;;;;;11.83;68.37;99547.38;6302172;22;45812;-81
2023/01/08 10:56:23;;;;;;;;;1.75;0.00;;;;;11.87;68.51;99550.56;6303110;22;45809;-84
2023/01/08 10:58:50;;;;;;;;;1.00;0.75;;;;;11.81;68.48;99533.59;6304906;22;45616;-78
2023/01/08 11:01:24;;;;;;;;;1.00;1.00;;;;;11.92;68.04;99540.44;6302375;22;46628;-77
2023/01/08 11:03:54;;;;;;;;;2.00;0.00;;;;;11.94;68.03;99538.50;6301781;22;46084;-78
2023/01/08 11:06:30;;;;;;;;;1.00;1.00;;;;;11.98;67.99;99543.34;6302893;22;45664;-77
2023/01/08 11:15:40;;;;;;;;;3.25;2.00;;;;;12.03;67.01;99517.47;6301472;22;45783;-77
2023/01/08 11:18:21;;;;;;;;;1.25;0.50;;;;;12.04;67.14;99513.84;6302349;22;45649;-77
2023/01/08 11:20:48;;;;;;;;;2.00;2.00;;;;;12.04;67.05;99513.03;6304147;22;45536;-79
2023/01/08 11:23:21;;;;;;;;;1.00;0.00;;;;;12.09;66.29;99505.56;6306828;22;47418;-77
2023/01/08 11:29:21;;;;;;;;;0.75;0.00;;;;;12.08;66.43;99493.41;6307040;22;45477;-78
2023/01/08 11:32:18;;;;;;;;;1.00;0.00;;;;;12.10;66.14;99484.41;6303659;22;45600;-78
2023/01/08 11:34:52;;;;;;;;;1.00;0.00;;;;;12.13;66.35;99468.38;6303642;22;45653;-78
2023/01/08 11:37:24;;;;;;;;;1.00;0.00;;;;;12.15;66.18;99457.69;6303303;22;46665;-78
2023/01/08 11:39:51;;;;;;;;;0.00;0.00;;;;;12.22;65.92;99464.03;6302606;22;45582;-78
2023/01/08 11:42:33;;;;;;;;;2.00;0.00;;;;;12.30;66.13;99453.63;6303399;22;45525;-80
2023/01/08 11:45:15;;;;;;;;;0.00;0.00;;;;;12.38;65.91;99455.47;6303322;22;46964;-79
2023/01/08 11:48:06;;;;;;;;;0.25;0.25;;;;;12.44;65.69;99454.91;6302093;22;46349;-80
2023/01/08 11:50:39;;;;;;;;;2.00;0.00;;;;;12.51;65.81;99459.41;6238013;22;45712;-81
2023/01/08 11:53:13;;;;;;;;;0.75;0.25;;;;;12.55;65.65;99445.00;6238281;22;45836;-78
2023/01/08 11:56:12;;;;;;;;;1.00;0.00;;;;;12.63;65.74;99432.91;6238733;22;46525;-78
2023/01/08 11:58:56;;;;;;;;;1.00;1.00;;;;;12.68;65.05;99433.28;6237691;22;46212;-77
2023/01/08 12:01:39;;;;;;;;;0.75;0.75;;;;;12.68;64.90;99420.97;6237537;22;45632;-78
2023/01/08 12:04:37;;;;;;;;;0.00;0.00;;;;;12.68;64.63;99418.34;6212607;22;45604;-78
2023/01/08 12:07:23;;;;;;;;;1.25;0.25;;;;;12.65;64.83;99417.81;6237543;22;46642;-78
2023/01/08 12:13:33;;;;;;;;;1.50;0.00;;;;;12.67;64.70;99403.56;6120786;23;45806;-79
2023/01/08 12:16:32;;;;;;;;;0.75;0.25;;;;;12.67;64.70;99386.97;6123123;23;45855;-77
2023/01/08 12:19:41;;;;;;;;;1.00;0.00;;;;;12.67;64.89;99387.78;6117692;23;46523;-77
2023/01/08 12:22:45;;;;;;;;;1.50;0.50;;;;;12.68;65.11;99378.94;6001617;23;46653;-78
2023/01/08 12:31:59;;;;;;;;;0.75;0.00;;;;;12.79;64.84;99341.06;6058145;23;45722;-77
2023/01/08 12:34:35;;;;;;;;;1.00;0.00;;;;;12.82;64.41;99338.13;6058436;23;46148;-77
2023/01/08 12:37:10;;;;;;;;;0.00;0.00;;;;;12.85;64.76;99335.16;6058136;23;45583;-76
2023/01/08 12:39:46;;;;;;;;;0.25;0.25;;;;;12.85;64.20;99335.16;6058634;23;45428;-75
2023/01/08 12:42:15;;;;;;;;;2.00;1.00;;;;;12.86;64.49;99321.03;6057464;23;46291;-74
2023/01/08 12:44:43;;;;;;;;;1.00;0.50;;;;;12.91;64.46;99331.91;6058628;23;45926;-75